Terminal Aerodrome Forecast
Issued by NWS

Home | Current Version | Previous Version | Text Only | Print | Product List | Glossary On
Versions: 1 2 3 4 5 6 7 8 9 10 11 12 13 14 15 16 17 18 19 20 21 22 23 24
790
FTUS44 KLIX 271720
TAFMCB
TAF
KMCB 271720Z 2718/2818 19012G22KT P6SM SCT030 BKN080
     FM280000 18007KT P6SM BKN130
     FM280600 19005KT 3SM BR BKN010
     FM281200 VRB03KT 1/2SM FG OVC003
     FM281500 19005KT 3SM BR BKN015
     FM281700 19006KT P6SM BKN025=

USA.gov is the U.S. government's official web portal to all federal, state and local government web resources and services.